createdAt,value
2024-02-04T00:01:07.881Z,99167.47
2024-02-04T00:03:09.737Z,99167.23
2024-02-04T00:05:11.626Z,99163.76
2024-02-04T00:07:13.251Z,99161.58
2024-02-04T00:09:15.034Z,99160.58
2024-02-04T00:11:18.074Z,99163.52
2024-02-04T00:13:19.728Z,99162.36
2024-02-04T00:15:21.507Z,99166.77
2024-02-04T00:17:23.324Z,99160.95
2024-02-04T00:19:25.189Z,99156.91
2024-02-04T00:21:27.117Z,99149.66
2024-02-04T00:23:28.895Z,99149.39
2024-02-04T00:25:31.118Z,99144.42
2024-02-04T00:27:34.320Z,99144.56
2024-02-04T00:29:35.936Z,99144.65
2024-02-04T00:31:37.547Z,99136.98
2024-02-04T00:33:39.405Z,99134.51
2024-02-04T00:35:41.330Z,99125.33
2024-02-04T00:37:43.087Z,99130.77
2024-02-04T00:39:44.729Z,99128.02
2024-02-04T00:41:46.493Z,99132.50
2024-02-04T00:43:48.212Z,99129.78
2024-02-04T00:45:49.812Z,99125.27
2024-02-04T00:47:51.742Z,99126.30
2024-02-04T00:49:53.662Z,99134.85
2024-02-04T00:51:55.841Z,99134.16
2024-02-04T00:53:57.427Z,99135.67
2024-02-04T00:55:59.193Z,99137.84
2024-02-04T00:58:02.934Z,99140.30
2024-02-04T01:00:05.642Z,99144.10
2024-02-04T01:02:07.932Z,99147.19
2024-02-04T01:04:09.576Z,99148.02
2024-02-04T01:06:11.179Z,99142.42
2024-02-04T01:08:12.788Z,99135.72
2024-02-04T01:10:14.551Z,99139.30
2024-02-04T01:12:16.300Z,99136.96
2024-02-04T01:14:17.896Z,99143.70
2024-02-04T01:16:19.604Z,99145.30
2024-02-04T01:18:21.319Z,99147.36
2024-02-04T01:20:22.917Z,99147.68
2024-02-04T01:22:27.494Z,99145.96
2024-02-04T01:24:29.473Z,99143.39
2024-02-04T01:26:31.186Z,99143.87
2024-02-04T01:28:32.898Z,99145.39
2024-02-04T01:30:34.614Z,99143.23
2024-02-04T01:32:36.423Z,99144.04
2024-02-04T01:34:38.327Z,99143.27
2024-02-04T01:36:40.082Z,99136.22
2024-02-04T01:38:41.705Z,99133.92
2024-02-04T01:40:43.436Z,99135.69
2024-02-04T01:42:46.556Z,99133.08
2024-02-04T01:44:48.268Z,99138.09
2024-02-04T01:46:49.966Z,99140.74
2024-02-04T01:48:52.310Z,99135.14
2024-02-04T01:50:55.936Z,99131.48
2024-02-04T01:52:57.760Z,99129.48
2024-02-04T01:55:01.854Z,99129.21
2024-02-04T01:57:03.952Z,99126.59
2024-02-04T01:59:05.879Z,99121.90
2024-02-04T02:01:07.699Z,99112.67
2024-02-04T02:03:13.053Z,99107.23
2024-02-04T02:05:14.902Z,99106.05
2024-02-04T02:07:21.612Z,99103.00
2024-02-04T02:09:23.793Z,99103.35
2024-02-04T02:11:41.725Z,99099.42
2024-02-04T02:13:47.056Z,99102.50
2024-02-04T02:15:54.202Z,99100.10
2024-02-04T02:18:18.998Z,99100.61
2024-02-04T02:20:52.130Z,99098.65
2024-02-04T02:23:08.355Z,99097.80
2024-02-04T02:25:12.200Z,99095.30
2024-02-04T02:27:13.787Z,99092.48
2024-02-04T02:29:16.023Z,99098.79
2024-02-04T02:31:22.225Z,99103.48
2024-02-04T02:33:26.986Z,99100.73
2024-02-04T02:35:29.529Z,99107.27
2024-02-04T02:37:51.012Z,99102.38
2024-02-04T02:40:06.982Z,99102.31
2024-02-04T02:42:13.035Z,99103.02
2024-02-04T02:44:16.053Z,99101.80
2024-02-04T02:46:18.232Z,99104.71
2024-02-04T02:48:20.685Z,99106.61
2024-02-04T02:50:23.278Z,99105.27
2024-02-04T02:52:24.878Z,99102.44
2024-02-04T02:54:26.451Z,99098.62
2024-02-04T02:56:28.093Z,99093.87
2024-02-04T02:58:29.610Z,99098.23
2024-02-04T03:00:31.364Z,99101.79
2024-02-04T03:02:33.895Z,99110.80
2024-02-04T03:04:35.795Z,99111.73
2024-02-04T03:06:37.400Z,99114.52
2024-02-04T03:08:39.023Z,99116.07
2024-02-04T03:10:40.538Z,99119.61
2024-02-04T03:12:42.217Z,99115.80
2024-02-04T03:14:43.881Z,99126.61
2024-02-04T03:16:46.541Z,99132.22
2024-02-04T03:18:48.200Z,99131.20
2024-02-04T03:20:50.067Z,99135.34
2024-02-04T03:22:51.623Z,99131.29
2024-02-04T03:24:53.540Z,99132.52
2024-02-04T03:26:55.362Z,99135.79
2024-02-04T03:28:57.089Z,99132.14
2024-02-04T03:30:58.851Z,99122.21
2024-02-04T03:33:00.578Z,99118.66
2024-02-04T03:35:03.634Z,99108.13
2024-02-04T03:37:05.485Z,99099.52
2024-02-04T03:39:07.315Z,99095.92
2024-02-04T03:41:09.050Z,99099.71
2024-02-04T03:43:10.731Z,99094.67
2024-02-04T03:45:12.295Z,99091.94
2024-02-04T03:47:14.011Z,99098.61
2024-02-04T03:49:16.153Z,99100.48
2024-02-04T03:51:20.087Z,99102.00
2024-02-04T03:53:24.193Z,99101.90
2024-02-04T03:55:26.559Z,99099.06
2024-02-04T03:57:28.166Z,99102.13
2024-02-04T03:59:30.084Z,99106.25
2024-02-04T04:01:31.714Z,99109.70
2024-02-04T04:03:33.522Z,99111.06
2024-02-04T04:05:35.221Z,99106.36
2024-02-04T04:07:36.991Z,99108.61
2024-02-04T04:09:38.777Z,99115.18
2024-02-04T04:11:40.434Z,99108.44
2024-02-04T04:13:42.156Z,99109.18
2024-02-04T04:15:43.867Z,99111.89
2024-02-04T04:17:45.521Z,99106.75
2024-02-04T04:19:47.211Z,99107.42
2024-02-04T04:21:49.054Z,99105.75
2024-02-04T04:23:51.239Z,99110.69
2024-02-04T04:25:52.894Z,99109.83
2024-02-04T04:27:54.533Z,99106.48
2024-02-04T04:29:56.137Z,99114.13
2024-02-04T04:31:57.959Z,99113.06
2024-02-04T04:33:59.702Z,99109.23
2024-02-04T04:36:01.494Z,99109.70
2024-02-04T04:38:03.218Z,99116.02
2024-02-04T04:40:05.526Z,99113.64
2024-02-04T04:42:07.334Z,99117.61
2024-02-04T04:44:08.887Z,99113.30
2024-02-04T04:46:10.526Z,99112.41
2024-02-04T04:48:12.390Z,99107.41
2024-02-04T04:50:14.354Z,99104.48
2024-02-04T04:52:16.518Z,99103.08
2024-02-04T04:54:18.054Z,99105.23
2024-02-04T04:56:19.591Z,99111.36
2024-02-04T04:58:21.202Z,99110.67
2024-02-04T05:00:23.031Z,99106.58
2024-02-04T05:02:24.702Z,99109.44
2024-02-04T05:04:26.837Z,99104.15
2024-02-04T05:06:28.936Z,99109.05
2024-02-04T05:08:30.590Z,99107.30
2024-02-04T05:10:32.312Z,99107.82
2024-02-04T05:12:34.967Z,99107.89
2024-02-04T05:14:36.905Z,99109.75
2024-02-04T05:16:38.603Z,99108.80
2024-02-04T05:18:40.896Z,99111.36
2024-02-04T05:20:44.912Z,99113.13
2024-02-04T05:22:46.634Z,99111.82
2024-02-04T05:24:48.261Z,99114.04
2024-02-04T05:26:49.876Z,99119.83
2024-02-04T05:28:51.437Z,99121.57
2024-02-04T05:30:53.008Z,99126.36
2024-02-04T05:32:54.811Z,99126.16
2024-02-04T05:34:56.594Z,99122.95
2024-02-04T05:36:58.498Z,99117.33
2024-02-04T05:39:13.272Z,99116.54
2024-02-04T05:41:14.842Z,99113.27
2024-02-04T05:43:17.429Z,99110.52
2024-02-04T05:45:19.162Z,99113.17
2024-02-04T05:47:20.822Z,99109.52
2024-02-04T05:49:22.549Z,99107.48
2024-02-04T05:51:24.554Z,99110.68
2024-02-04T05:53:26.140Z,99116.60
2024-02-04T05:55:27.737Z,99122.57
2024-02-04T05:57:29.293Z,99135.59
2024-02-04T05:59:30.934Z,99131.52
2024-02-04T06:01:34.224Z,99134.79
2024-02-04T06:03:35.950Z,99122.34
2024-02-04T06:05:37.844Z,99121.72
2024-02-04T06:07:39.575Z,99116.86
2024-02-04T06:09:41.474Z,99109.57
2024-02-04T06:11:46.820Z,99113.03
2024-02-04T06:13:48.452Z,99117.66
2024-02-04T06:15:50.153Z,99124.97
2024-02-04T06:17:51.813Z,99129.98
2024-02-04T06:19:53.589Z,99140.46
2024-02-04T06:21:55.243Z,99140.53
2024-02-04T06:23:56.822Z,99136.87
2024-02-04T06:25:58.537Z,99141.23
2024-02-04T06:28:00.125Z,99133.95
2024-02-04T06:30:01.847Z,99125.84
2024-02-04T06:32:03.867Z,99113.02
2024-02-04T06:34:05.601Z,99106.34
2024-02-04T06:36:12.052Z,99104.10
2024-02-04T06:38:13.794Z,99111.15
2024-02-04T06:40:15.726Z,99115.20
2024-02-04T06:42:17.601Z,99120.63
2024-02-04T06:44:19.249Z,99128.04
2024-02-04T06:46:28.300Z,99140.71
2024-02-04T06:48:29.983Z,99146.64
2024-02-04T06:50:31.883Z,99139.80
2024-02-04T06:52:33.646Z,99141.34
2024-02-04T06:54:35.305Z,99136.23
2024-02-04T06:56:38.222Z,99136.30
2024-02-04T06:58:41.293Z,99142.52
2024-02-04T07:00:43.009Z,99126.29
2024-02-04T07:02:44.774Z,99136.56
2024-02-04T07:04:46.585Z,99135.94
2024-02-04T07:06:49.131Z,99144.07
2024-02-04T07:08:51.370Z,99139.48
2024-02-04T07:10:53.537Z,99134.13
2024-02-04T07:12:55.214Z,99129.25
2024-02-04T07:14:56.880Z,99130.11
2024-02-04T07:16:58.697Z,99128.34
2024-02-04T07:19:00.626Z,99115.34
2024-02-04T07:21:02.356Z,99125.83
2024-02-04T07:23:05.538Z,99123.46
2024-02-04T07:25:07.664Z,99117.64
2024-02-04T07:27:09.631Z,99117.19
2024-02-04T07:29:11.273Z,99110.23
2024-02-04T07:31:13.044Z,99113.60
2024-02-04T07:33:14.918Z,99119.87
2024-02-04T07:35:16.879Z,99114.48
2024-02-04T07:37:19.322Z,99131.05
2024-02-04T07:39:20.982Z,99144.70
2024-02-04T07:41:22.854Z,99139.38
2024-02-04T07:43:24.395Z,99129.23
2024-02-04T07:45:26.060Z,99137.71
2024-02-04T07:47:27.752Z,99142.92
2024-02-04T07:49:29.761Z,99131.23
2024-02-04T07:51:32.092Z,99122.67
2024-02-04T07:53:33.775Z,99127.25
2024-02-04T07:55:35.494Z,99134.00
2024-02-04T07:57:37.213Z,99131.44
2024-02-04T07:59:39.205Z,99140.40
2024-02-04T08:01:41.057Z,99134.38
2024-02-04T08:03:42.901Z,99140.70
2024-02-04T08:05:44.750Z,99144.27
2024-02-04T08:07:46.809Z,99139.86
2024-02-04T08:09:48.655Z,99146.54
2024-02-04T08:11:50.251Z,99143.60
2024-02-04T08:13:51.934Z,99142.25
2024-02-04T08:15:53.599Z,99152.20
2024-02-04T08:17:55.582Z,99142.58
2024-02-04T08:19:57.468Z,99145.83
2024-02-04T08:22:00.160Z,99148.91
2024-02-04T08:24:02.043Z,99151.34
2024-02-04T08:26:04.941Z,99157.65
2024-02-04T08:28:06.742Z,99168.38
2024-02-04T08:30:08.698Z,99160.68
2024-02-04T08:32:10.406Z,99166.27
2024-02-04T08:34:12.134Z,99161.84
2024-02-04T08:36:14.042Z,99160.67
2024-02-04T08:38:16.286Z,99170.41
2024-02-04T08:40:17.981Z,99174.60
2024-02-04T08:42:19.583Z,99175.81
2024-02-04T08:44:31.609Z,99176.29
2024-02-04T08:46:37.530Z,99178.53
2024-02-04T08:48:39.368Z,99169.83
2024-02-04T08:50:41.124Z,99172.24
2024-02-04T08:52:48.665Z,99171.92
2024-02-04T08:54:50.455Z,99167.65
2024-02-04T08:56:52.171Z,99173.51
2024-02-04T08:58:53.788Z,99168.11
2024-02-04T09:00:55.750Z,99173.55
2024-02-04T09:02:58.070Z,99165.08
2024-02-04T09:04:59.683Z,99172.88
2024-02-04T09:07:01.413Z,99177.27
2024-02-04T09:09:03.389Z,99182.05
2024-02-04T09:11:05.249Z,99178.16
2024-02-04T09:13:06.872Z,99182.22
2024-02-04T09:15:09.674Z,99182.92
2024-02-04T09:17:11.651Z,99184.25
2024-02-04T09:19:13.514Z,99194.38
2024-02-04T09:21:15.741Z,99196.95
2024-02-04T09:23:17.600Z,99197.98
2024-02-04T09:25:19.416Z,99196.45
2024-02-04T09:27:21.359Z,99203.33
2024-02-04T09:29:23.153Z,99200.64
2024-02-04T09:31:24.920Z,99200.85
2024-02-04T09:33:26.963Z,99196.32
2024-02-04T09:35:29.304Z,99196.88
2024-02-04T09:37:31.391Z,99206.94
2024-02-04T09:39:33.284Z,99213.84
2024-02-04T09:41:35.102Z,99218.94
2024-02-04T09:43:39.144Z,99222.63
2024-02-04T09:45:41.322Z,99218.75
2024-02-04T09:47:44.050Z,99212.67
2024-02-04T09:49:46.376Z,99205.03
2024-02-04T09:51:49.566Z,99204.42
2024-02-04T09:53:53.851Z,99194.67
2024-02-04T09:55:57.112Z,99189.38
2024-02-04T09:57:59.248Z,99192.88
2024-02-04T10:00:01.133Z,99194.98
2024-02-04T10:02:06.140Z,99191.23
2024-02-04T10:04:08.277Z,99184.12
2024-02-04T10:06:10.057Z,99173.05
2024-02-04T10:08:12.243Z,99171.93
2024-02-04T10:10:14.386Z,99163.70
2024-02-04T10:12:16.173Z,99169.13
2024-02-04T10:14:19.880Z,99176.94
2024-02-04T10:16:22.902Z,99175.49
2024-02-04T10:18:25.114Z,99172.09
2024-02-04T10:20:27.179Z,99166.73
2024-02-04T10:22:31.549Z,99169.06
2024-02-04T10:24:33.235Z,99168.54
2024-02-04T10:26:38.176Z,99159.11
2024-02-04T10:28:42.032Z,99166.61
2024-02-04T10:30:43.762Z,99165.48
2024-02-04T10:32:46.988Z,99166.73
2024-02-04T10:34:48.668Z,99158.58
2024-02-04T10:36:50.452Z,99147.66
2024-02-04T10:38:52.233Z,99153.64
2024-02-04T10:40:56.077Z,99139.33
2024-02-04T10:43:05.135Z,99139.41
2024-02-04T10:45:09.925Z,99122.21
2024-02-04T10:47:17.483Z,99123.75
2024-02-04T10:49:20.808Z,99117.67
2024-02-04T10:51:26.697Z,99105.91
2024-02-04T10:53:29.095Z,99111.65
2024-02-04T10:55:32.152Z,99113.63
2024-02-04T10:57:33.883Z,99100.55
2024-02-04T10:59:36.102Z,99107.14
2024-02-04T11:01:38.463Z,99090.08
2024-02-04T11:03:41.066Z,99094.38
2024-02-04T11:05:43.868Z,99087.58
2024-02-04T11:07:46.513Z,99081.09
2024-02-04T11:09:51.345Z,99080.65
2024-02-04T11:11:57.109Z,99068.09
2024-02-04T11:14:06.536Z,99065.67
2024-02-04T11:16:20.662Z,99053.73
2024-02-04T11:18:28.647Z,99056.51
2024-02-04T11:20:49.539Z,99052.19
2024-02-04T11:22:51.114Z,99047.73
2024-02-04T11:25:24.211Z,99052.77
2024-02-04T11:27:27.496Z,99043.13
2024-02-04T11:29:29.612Z,99043.95
2024-02-04T11:31:31.520Z,99044.45
2024-02-04T11:33:33.980Z,99030.66
2024-02-04T11:35:36.692Z,99024.14
2024-02-04T11:37:39.288Z,99024.91
2024-02-04T11:39:49.919Z,99022.01
2024-02-04T11:41:52.568Z,99021.77
2024-02-04T11:44:02.157Z,99024.91
2024-02-04T11:46:07.388Z,99017.59
2024-02-04T11:48:13.227Z,99020.71
2024-02-04T11:50:31.209Z,99022.46
2024-02-04T11:52:32.962Z,99027.59
2024-02-04T11:54:35.040Z,99023.52
2024-02-04T11:56:37.503Z,99022.62
2024-02-04T11:58:41.987Z,99016.78
2024-02-04T12:00:48.344Z,99010.13
2024-02-04T12:03:04.292Z,99001.06
2024-02-04T12:05:06.756Z,98992.13
2024-02-04T12:07:09.879Z,98984.81
2024-02-04T12:09:12.109Z,98968.61
2024-02-04T12:11:14.014Z,98962.10
2024-02-04T12:13:15.647Z,98960.23
2024-02-04T12:15:18.255Z,98958.63
2024-02-04T12:17:21.429Z,98952.05
2024-02-04T12:19:23.218Z,98945.27
2024-02-04T12:21:27.202Z,98941.58
2024-02-04T12:23:30.473Z,98940.83
2024-02-04T12:25:33.165Z,98937.27
2024-02-04T12:27:35.827Z,98933.21
2024-02-04T12:29:37.461Z,98931.73
2024-02-04T12:31:41.351Z,98945.45
2024-02-04T12:33:45.246Z,98931.34
2024-02-04T12:35:53.649Z,98911.52
2024-02-04T12:37:57.517Z,98922.64
2024-02-04T12:40:00.533Z,98923.58
2024-02-04T12:42:02.463Z,98922.07
2024-02-04T12:44:06.435Z,98920.73
2024-02-04T12:46:10.300Z,98920.67
2024-02-04T12:48:16.414Z,98922.98
2024-02-04T12:50:19.567Z,98919.04
2024-02-04T12:52:22.244Z,98919.62
2024-02-04T12:54:24.018Z,98917.63
2024-02-04T12:56:25.779Z,98923.24
2024-02-04T12:58:27.594Z,98921.72
2024-02-04T13:00:30.433Z,98928.16
2024-02-04T13:02:32.209Z,98925.14
2024-02-04T13:04:43.449Z,98926.57
2024-02-04T13:06:45.295Z,98926.08
2024-02-04T13:08:46.974Z,98927.40
2024-02-04T13:10:56.294Z,98927.31
2024-02-04T13:13:10.131Z,98925.79
2024-02-04T13:15:12.213Z,98917.55
2024-02-04T13:17:13.959Z,98915.38
2024-02-04T13:19:15.652Z,98915.73
2024-02-04T13:21:21.348Z,98915.66
2024-02-04T13:23:23.105Z,98913.05
2024-02-04T13:25:25.385Z,98908.96
2024-02-04T13:27:27.328Z,98897.84
2024-02-04T13:29:29.206Z,98883.15
2024-02-04T13:31:30.845Z,98874.77
2024-02-04T13:33:32.643Z,98863.10
2024-02-04T13:35:34.461Z,98861.25
2024-02-04T13:37:48.007Z,98860.09
2024-02-04T13:39:49.653Z,98876.42
2024-02-04T13:41:51.290Z,98873.38
2024-02-04T13:43:52.934Z,98866.34
2024-02-04T13:45:54.978Z,98872.41
2024-02-04T13:47:56.887Z,98875.64
2024-02-04T13:50:00.941Z,98865.15
2024-02-04T13:52:02.943Z,98867.11
2024-02-04T13:54:05.299Z,98872.19
2024-02-04T13:56:07.259Z,98882.27
2024-02-04T13:58:09.123Z,98883.56
2024-02-04T14:00:11.718Z,98889.56
2024-02-04T14:02:13.479Z,98888.98
2024-02-04T14:04:15.207Z,98881.98
2024-02-04T14:06:17.084Z,98885.98
2024-02-04T14:08:18.762Z,98887.00
2024-02-04T14:10:20.608Z,98888.59
2024-02-04T14:12:22.361Z,98887.92
2024-02-04T14:14:25.478Z,98874.73
2024-02-04T14:16:27.212Z,98870.38
2024-02-04T14:18:28.931Z,98872.98
2024-02-04T14:20:30.703Z,98861.73
2024-02-04T14:22:32.321Z,98854.48
2024-02-04T14:24:34.775Z,98848.24
2024-02-04T14:26:36.957Z,98845.28
2024-02-04T14:28:42.756Z,98837.63
2024-02-04T14:30:44.504Z,98825.29
2024-02-04T14:32:46.540Z,98814.95
2024-02-04T14:34:49.117Z,98811.21
2024-02-04T14:36:51.198Z,98807.00
2024-02-04T14:38:52.946Z,98805.07
2024-02-04T14:40:54.566Z,98805.48
2024-02-04T14:42:56.533Z,98812.92
2024-02-04T14:44:58.315Z,98816.77
2024-02-04T14:47:00.405Z,98815.01
2024-02-04T14:49:02.226Z,98797.15
2024-02-04T14:51:04.269Z,98791.17
2024-02-04T14:53:06.567Z,98789.02
2024-02-04T14:55:11.335Z,98793.77
2024-02-04T14:57:13.237Z,98805.54
2024-02-04T14:59:21.994Z,98807.50
2024-02-04T15:01:24.931Z,98812.73
2024-02-04T15:03:26.799Z,98814.13
2024-02-04T15:05:28.554Z,98815.41
2024-02-04T15:07:30.337Z,98814.98
2024-02-04T15:09:33.187Z,98810.02
2024-02-04T15:11:35.390Z,98806.21
2024-02-04T15:13:37.902Z,98800.90
2024-02-04T15:15:39.928Z,98802.09
2024-02-04T15:17:42.042Z,98799.20
2024-02-04T15:19:44.327Z,98790.30
2024-02-04T15:21:46.529Z,98783.14
2024-02-04T15:23:49.404Z,98776.84
2024-02-04T15:25:54.092Z,98776.87
2024-02-04T15:27:57.433Z,98776.23
2024-02-04T15:29:59.516Z,98769.35
2024-02-04T15:32:01.425Z,98769.34
2024-02-04T15:34:05.723Z,98770.89
2024-02-04T15:36:07.997Z,98758.22
2024-02-04T15:38:09.713Z,98757.41
2024-02-04T15:40:12.212Z,98759.39
2024-02-04T15:42:14.106Z,98756.80
2024-02-04T15:44:19.039Z,98762.98
2024-02-04T15:46:21.746Z,98761.71
2024-02-04T15:48:29.613Z,98760.05
2024-02-04T15:50:35.732Z,98758.60
2024-02-04T15:52:39.665Z,98755.55
2024-02-04T15:54:41.690Z,98757.02
2024-02-04T15:56:46.338Z,98752.06
2024-02-04T15:58:48.381Z,98747.61
2024-02-04T16:00:50.735Z,98747.96
2024-02-04T16:02:56.058Z,98750.48
2024-02-04T16:04:58.066Z,98753.86
2024-02-04T16:07:00.201Z,98744.02
2024-02-04T16:09:02.866Z,98736.95
2024-02-04T16:11:07.246Z,98732.13
2024-02-04T16:13:12.610Z,98724.23
2024-02-04T16:15:17.102Z,98723.95
2024-02-04T16:17:21.086Z,98724.45
2024-02-04T16:19:23.451Z,98721.30
2024-02-04T16:21:25.201Z,98728.42
2024-02-04T16:23:27.163Z,98722.79
2024-02-04T16:25:31.861Z,98724.59
2024-02-04T16:27:33.795Z,98727.11
2024-02-04T16:29:36.943Z,98731.73
2024-02-04T16:31:38.473Z,98728.13
2024-02-04T16:33:40.103Z,98735.57
2024-02-04T16:35:42.595Z,98739.95
2024-02-04T16:37:44.185Z,98723.33
2024-02-04T16:39:45.791Z,98724.70
2024-02-04T16:41:48.036Z,98722.21
2024-02-04T16:43:49.615Z,98715.61
2024-02-04T16:45:51.353Z,98725.05
2024-02-04T16:47:53.202Z,98723.11
2024-02-04T16:49:55.973Z,98717.20
2024-02-04T16:51:58.526Z,98714.41
2024-02-04T16:54:00.292Z,98699.23
2024-02-04T16:56:01.847Z,98708.60
2024-02-04T16:58:03.550Z,98708.10
2024-02-04T17:00:06.933Z,98691.43
2024-02-04T17:02:08.729Z,98686.71
2024-02-04T17:04:11.367Z,98709.90
2024-02-04T17:06:14.142Z,98725.27
2024-02-04T17:08:16.266Z,98709.77
2024-02-04T17:10:18.523Z,98703.29
2024-02-04T17:12:21.222Z,98691.80
2024-02-04T17:14:25.501Z,98687.37
2024-02-04T17:16:37.745Z,98688.95
2024-02-04T17:18:50.876Z,98684.71
2024-02-04T17:20:57.221Z,98683.30
2024-02-04T17:23:02.230Z,98681.83
2024-02-04T17:25:06.286Z,98682.58
2024-02-04T17:27:08.429Z,98680.98
2024-02-04T17:29:10.604Z,98682.61
2024-02-04T17:31:12.648Z,98674.54
2024-02-04T17:33:17.991Z,98675.34
2024-02-04T17:35:21.719Z,98675.88
2024-02-04T17:37:23.460Z,98684.63
2024-02-04T17:39:28.805Z,98680.98
2024-02-04T17:41:30.441Z,98679.05
2024-02-04T17:43:32.031Z,98677.36
2024-02-04T17:45:34.201Z,98680.64
2024-02-04T17:47:36.976Z,98680.73
2024-02-04T17:49:40.003Z,98680.69
2024-02-04T17:51:45.604Z,98686.44
2024-02-04T17:53:47.421Z,98684.86
2024-02-04T17:55:49.226Z,98695.05
2024-02-04T17:57:51.204Z,98688.95
2024-02-04T17:59:54.325Z,98688.86
2024-02-04T18:01:58.068Z,98687.48
2024-02-04T18:03:59.899Z,98685.52
2024-02-04T18:06:01.676Z,98688.47
2024-02-04T18:08:03.552Z,98692.83
2024-02-04T18:10:07.418Z,98692.79
2024-02-04T18:12:09.096Z,98701.31
2024-02-04T18:14:10.682Z,98695.39
2024-02-04T18:16:13.019Z,98689.13
2024-02-04T18:18:14.701Z,98684.69
2024-02-04T18:20:16.557Z,98684.08
2024-02-04T18:22:18.345Z,98686.31
2024-02-04T18:24:19.929Z,98681.17
2024-02-04T18:26:28.462Z,98683.22
2024-02-04T18:28:30.185Z,98684.89
2024-02-04T18:30:31.974Z,98681.07
2024-02-04T18:32:33.848Z,98680.33
2024-02-04T18:34:35.927Z,98683.09
2024-02-04T18:36:37.814Z,98687.79
2024-02-04T18:38:39.606Z,98690.98
2024-02-04T18:40:41.195Z,98685.45
2024-02-04T18:42:43.018Z,98688.26
2024-02-04T18:44:45.024Z,98692.21
2024-02-04T18:46:49.239Z,98688.90
2024-02-04T18:48:51.864Z,98690.70
2024-02-04T18:50:55.171Z,98697.22
2024-02-04T18:52:58.576Z,98700.61
2024-02-04T18:55:00.395Z,98692.27
2024-02-04T18:57:04.903Z,98704.34
2024-02-04T18:59:06.619Z,98706.68
2024-02-04T19:01:08.275Z,98707.06
2024-02-04T19:03:10.145Z,98704.94
2024-02-04T19:05:12.076Z,98709.24
2024-02-04T19:07:13.998Z,98707.04
2024-02-04T19:09:17.240Z,98716.34
2024-02-04T19:11:19.023Z,98714.42
2024-02-04T19:13:20.831Z,98723.94
2024-02-04T19:15:22.617Z,98721.86
2024-02-04T19:17:24.566Z,98719.06
2024-02-04T19:19:26.386Z,98723.38
2024-02-04T19:21:28.839Z,98716.96
2024-02-04T19:23:30.557Z,98716.00
2024-02-04T19:25:32.760Z,98719.07
2024-02-04T19:27:34.492Z,98712.65
2024-02-04T19:29:36.246Z,98708.95
2024-02-04T19:31:39.808Z,98712.70
2024-02-04T19:33:41.596Z,98713.19
2024-02-04T19:35:43.572Z,98711.09
2024-02-04T19:37:45.805Z,98715.02
2024-02-04T19:39:47.507Z,98722.83
2024-02-04T19:41:49.516Z,98730.13
2024-02-04T19:43:51.102Z,98722.21
2024-02-04T19:45:52.710Z,98716.85
2024-02-04T19:47:54.492Z,98723.16
2024-02-04T19:49:56.593Z,98719.14
2024-02-04T19:52:01.125Z,98716.55
2024-02-04T19:54:02.906Z,98718.56
2024-02-04T19:56:05.073Z,98721.36
2024-02-04T19:58:06.739Z,98719.66
2024-02-04T20:00:09.899Z,98711.59
2024-02-04T20:02:11.906Z,98715.66
2024-02-04T20:04:13.760Z,98709.57
2024-02-04T20:06:15.559Z,98700.25
2024-02-04T20:08:17.352Z,98705.09
2024-02-04T20:10:19.202Z,98701.72
2024-02-04T20:12:20.986Z,98704.56
2024-02-04T20:14:22.771Z,98703.66
2024-02-04T20:16:24.422Z,98704.39
2024-02-04T20:18:27.299Z,98709.49
2024-02-04T20:20:30.286Z,98712.76
2024-02-04T20:22:32.201Z,98714.01
2024-02-04T20:24:35.073Z,98706.95
2024-02-04T20:26:40.528Z,98706.70
2024-02-04T20:28:42.360Z,98707.02
2024-02-04T20:30:44.176Z,98694.51
2024-02-04T20:32:46.209Z,98698.23
2024-02-04T20:34:48.150Z,98692.21
2024-02-04T20:36:52.694Z,98698.92
2024-02-04T20:38:54.387Z,98698.21
2024-02-04T20:40:56.069Z,98704.23
2024-02-04T20:42:58.103Z,98698.88
2024-02-04T20:44:59.818Z,98693.76
2024-02-04T20:47:01.409Z,98701.53
2024-02-04T20:49:03.034Z,98700.89
2024-02-04T20:51:05.632Z,98691.83
2024-02-04T20:53:13.957Z,98703.71
2024-02-04T20:55:17.353Z,98702.81
2024-02-04T20:57:19.178Z,98713.31
2024-02-04T20:59:20.985Z,98708.25
2024-02-04T21:01:24.303Z,98708.66
2024-02-04T21:03:26.543Z,98702.33
2024-02-04T21:05:28.601Z,98701.42
2024-02-04T21:07:30.457Z,98702.61
2024-02-04T21:09:33.658Z,98700.01
2024-02-04T21:11:35.482Z,98705.45
2024-02-04T21:13:37.786Z,98706.52
2024-02-04T21:15:39.573Z,98697.88
2024-02-04T21:17:41.397Z,98702.96
2024-02-04T21:19:43.638Z,98697.38
2024-02-04T21:21:45.231Z,98701.61
2024-02-04T21:23:47.123Z,98697.02
2024-02-04T21:25:48.925Z,98701.06
2024-02-04T21:27:50.948Z,98699.27
2024-02-04T21:29:52.568Z,98697.77
2024-02-04T21:31:56.646Z,98692.84
2024-02-04T21:33:58.539Z,98695.96
2024-02-04T21:36:00.495Z,98693.67
2024-02-04T21:38:03.481Z,98696.69
2024-02-04T21:40:08.167Z,98697.23
2024-02-04T21:42:09.930Z,98684.77
2024-02-04T21:44:12.910Z,98683.73
2024-02-04T21:46:14.855Z,98688.13
2024-02-04T21:48:16.684Z,98686.10
2024-02-04T21:50:19.420Z,98686.98
2024-02-04T21:52:21.109Z,98686.67
2024-02-04T21:54:25.585Z,98688.19
2024-02-04T21:56:28.290Z,98678.68
2024-02-04T21:58:29.959Z,98676.61
2024-02-04T22:00:33.393Z,98682.98
2024-02-04T22:02:35.156Z,98682.73
2024-02-04T22:04:36.750Z,98676.29
2024-02-04T22:06:38.642Z,98678.21
2024-02-04T22:08:40.570Z,98685.58
2024-02-04T22:10:42.297Z,98680.27
2024-02-04T22:12:44.286Z,98672.15
2024-02-04T22:14:46.196Z,98663.59
2024-02-04T22:16:47.951Z,98658.55
2024-02-04T22:18:49.616Z,98656.30
2024-02-04T22:20:51.358Z,98659.17
2024-02-04T22:22:52.912Z,98663.12
2024-02-04T22:24:54.902Z,98656.70
2024-02-04T22:26:56.829Z,98665.82
2024-02-04T22:28:58.425Z,98673.09
2024-02-04T22:31:00.113Z,98673.67
2024-02-04T22:33:01.927Z,98673.70
2024-02-04T22:35:05.791Z,98676.05
2024-02-04T22:37:09.109Z,98662.75
2024-02-04T22:39:11.346Z,98653.40
2024-02-04T22:41:13.016Z,98647.03
2024-02-04T22:43:14.816Z,98655.63
2024-02-04T22:45:16.510Z,98658.69
2024-02-04T22:47:19.402Z,98661.34
2024-02-04T22:49:21.894Z,98659.09
2024-02-04T22:51:23.566Z,98661.48
2024-02-04T22:53:26.506Z,98652.56
2024-02-04T22:55:28.017Z,98658.34
2024-02-04T22:57:29.516Z,98654.35
2024-02-04T22:59:33.118Z,98668.93
2024-02-04T23:01:36.574Z,98664.06
2024-02-04T23:03:38.537Z,98658.20
2024-02-04T23:05:40.318Z,98660.03
2024-02-04T23:07:50.698Z,98660.34
2024-02-04T23:09:54.499Z,98653.46
2024-02-04T23:11:56.222Z,98651.36
2024-02-04T23:13:57.772Z,98651.02
2024-02-04T23:15:59.456Z,98650.66
2024-02-04T23:18:03.239Z,98658.08
2024-02-04T23:20:08.217Z,98652.21
2024-02-04T23:22:11.623Z,98652.73
2024-02-04T23:24:13.230Z,98658.15
2024-02-04T23:26:14.893Z,98654.37
2024-02-04T23:28:16.558Z,98658.99
2024-02-04T23:30:18.295Z,98653.77
2024-02-04T23:32:19.914Z,98659.01
2024-02-04T23:34:21.583Z,98665.31
2024-02-04T23:36:24.258Z,98665.80
2024-02-04T23:38:26.115Z,98665.40
2024-02-04T23:40:27.706Z,98665.39
2024-02-04T23:42:29.402Z,98672.13
2024-02-04T23:44:31.635Z,98670.01
2024-02-04T23:46:33.306Z,98665.39
2024-02-04T23:48:35.048Z,98662.66
2024-02-04T23:50:37.770Z,98667.36
2024-02-04T23:52:39.881Z,98671.81
2024-02-04T23:54:41.519Z,98667.51
2024-02-04T23:56:43.228Z,98664.33
2024-02-04T23:58:44.757Z,98666.50
